首页
METAR-TAF:

METAR-TAF

机场 :

Doylestown Airport

Doylestown, 宾夕法尼亚州, 美国

纬度: 40-19-48N, 经度: 075-07-21W, 海拔: 120米

当前天气观测

该预报发布于21分钟前的14:54 UTC
静风
温度 29°C
湿度 70%
气压 1011 hPa
能見度: 16.1公里
天空无云

METAR: KDYL 221454Z AUTO 00000KT 10SM CLR 29/23 A2984 RMK AO2 SLP096 T02940228 58010

时间: 11:15 (15:15 UTC)


TAF: 丢失

超过4000个机场的气象观测和天气预报(METAR&TAF报告)。

可查询的气象台以黄色和红色小点在地图上表示。

将鼠标移到小点上方,可查看气象台名称。

然后点击查看天气观测和预报。

如需切换地图:点击带黑十字的绿色按钮放大地图;点击带横线的绿色按钮缩小地图;或者点击绿色箭头查看邻近地区的地图。


METAR-TAF: